createdAt,value
2023-05-10T00:00:16.908Z,15.30
2023-05-10T00:02:46.661Z,14.73
2023-05-10T00:05:14.561Z,14.87
2023-05-10T00:07:45.624Z,13.30
2023-05-10T00:10:14.023Z,15.75
2023-05-10T00:12:43.371Z,17.13
2023-05-10T00:15:11.779Z,16.60
2023-05-10T00:17:40.461Z,15.10
2023-05-10T00:20:11.820Z,16.50
2023-05-10T00:22:39.763Z,17.35
2023-05-10T00:25:10.197Z,14.80
2023-05-10T00:27:38.157Z,13.07
2023-05-10T00:30:08.405Z,15.40
2023-05-10T00:32:36.878Z,12.52
2023-05-10T00:35:05.988Z,13.10
2023-05-10T00:37:35.785Z,13.98
2023-05-10T00:40:04.151Z,14.55
2023-05-10T00:42:32.072Z,16.10
2023-05-10T00:44:59.858Z,17.50
2023-05-10T00:47:28.670Z,10.60
2023-05-10T00:49:58.289Z,7.63
2023-05-10T00:52:27.659Z,5.53
2023-05-10T00:54:58.052Z,7.33
2023-05-10T00:57:26.052Z,7.32
2023-05-10T00:59:54.395Z,8.07
2023-05-10T01:02:22.452Z,7.35
2023-05-10T01:04:51.097Z,5.72
2023-05-10T01:07:19.294Z,5.93
2023-05-10T01:09:47.634Z,6.10
2023-05-10T01:12:16.988Z,4.33
2023-05-10T01:14:47.517Z,4.60
2023-05-10T01:17:17.146Z,5.00
2023-05-10T01:19:45.278Z,4.85
2023-05-10T01:22:54.169Z,4.80
2023-05-10T01:25:50.501Z,5.03
2023-05-10T01:31:31.774Z,4.00
2023-05-10T01:34:09.949Z,3.87
2023-05-10T01:36:48.975Z,3.80
2023-05-10T01:39:25.486Z,4.17
2023-05-10T01:42:04.380Z,1.80
2023-05-10T01:44:39.892Z,3.37
2023-05-10T01:47:13.227Z,3.70
2023-05-10T01:49:50.418Z,3.87
2023-05-10T01:52:23.280Z,3.90
2023-05-10T01:55:00.460Z,4.77
2023-05-10T01:57:36.199Z,4.27
2023-05-10T02:00:07.371Z,4.00
2023-05-10T02:02:46.894Z,5.00
2023-05-10T02:05:19.304Z,5.17
2023-05-10T02:07:48.608Z,5.80
2023-05-10T02:10:18.641Z,5.80
2023-05-10T02:12:52.024Z,6.90
2023-05-10T02:15:25.631Z,6.63
2023-05-10T02:17:56.820Z,7.50
2023-05-10T02:20:27.842Z,7.73
2023-05-10T02:22:58.677Z,7.23
2023-05-10T02:25:29.032Z,8.20
2023-05-10T02:28:01.416Z,7.57
2023-05-10T02:30:32.158Z,8.23
2023-05-10T02:33:01.603Z,9.80
2023-05-10T02:35:34.343Z,9.67
2023-05-10T02:38:05.814Z,11.13
2023-05-10T02:40:35.551Z,11.50
2023-05-10T02:43:06.576Z,11.03
2023-05-10T02:45:37.522Z,10.27
2023-05-10T02:48:06.622Z,10.77
2023-05-10T02:50:40.431Z,11.63
2023-05-10T02:53:32.254Z,11.93
2023-05-10T02:56:08.150Z,11.73
2023-05-10T02:58:36.525Z,11.10
2023-05-10T03:01:05.021Z,12.07
2023-05-10T03:03:33.052Z,12.30
2023-05-10T03:06:02.685Z,11.33
2023-05-10T03:08:31.233Z,12.70
2023-05-10T03:11:38.321Z,11.33
2023-05-10T03:14:22.233Z,11.53
2023-05-10T03:17:05.248Z,12.37
2023-05-10T03:19:55.556Z,12.27
2023-05-10T03:22:33.138Z,11.17
2023-05-10T03:25:07.038Z,11.47
2023-05-10T03:27:39.898Z,11.90
2023-05-10T03:30:11.361Z,12.73
2023-05-10T03:32:40.422Z,12.47
2023-05-10T03:35:09.593Z,12.70
2023-05-10T03:37:40.533Z,13.03
2023-05-10T03:40:11.105Z,13.17
2023-05-10T03:42:41.520Z,11.93
2023-05-10T03:45:11.002Z,12.37
2023-05-10T03:47:39.008Z,12.67
2023-05-10T03:50:09.026Z,12.00
2023-05-10T03:52:37.401Z,12.43
2023-05-10T03:55:08.789Z,13.13
2023-05-10T03:57:37.046Z,12.27
2023-05-10T04:00:06.437Z,9.33
2023-05-10T04:02:43.218Z,13.37
2023-05-10T04:05:18.754Z,11.70
2023-05-10T04:07:48.269Z,10.97
2023-05-10T04:10:18.708Z,12.03
2023-05-10T04:12:47.527Z,13.73
2023-05-10T04:15:15.477Z,13.80
2023-05-10T04:17:43.610Z,15.70
2023-05-10T04:20:12.950Z,13.73
2023-05-10T04:22:41.971Z,14.70
2023-05-10T04:25:10.513Z,13.53
2023-05-10T04:27:39.852Z,13.30
2023-05-10T04:30:09.306Z,13.57
2023-05-10T04:32:38.713Z,14.90
2023-05-10T04:35:08.173Z,15.60
2023-05-10T04:37:37.620Z,16.70
2023-05-10T04:40:07.512Z,14.20
2023-05-10T04:42:35.424Z,13.37
2023-05-10T04:45:06.146Z,14.53
2023-05-10T04:47:34.078Z,15.50
2023-05-10T04:50:02.035Z,15.97
2023-05-10T04:52:30.157Z,15.15
2023-05-10T04:54:57.945Z,16.57
2023-05-10T04:57:25.814Z,16.67
2023-05-10T04:59:53.795Z,16.43
2023-05-10T05:02:23.195Z,16.47
2023-05-10T05:04:51.010Z,17.60
2023-05-10T05:07:18.866Z,18.17
2023-05-10T05:09:46.735Z,19.13
2023-05-10T05:12:15.304Z,19.10
2023-05-10T05:14:44.704Z,21.53
2023-05-10T05:17:12.653Z,19.77
2023-05-10T05:19:41.722Z,22.17
2023-05-10T05:22:09.684Z,20.13
2023-05-10T05:24:40.862Z,20.97
2023-05-10T05:27:08.799Z,23.23
2023-05-10T05:29:36.634Z,21.70
2023-05-10T05:32:07.512Z,23.75
2023-05-10T05:34:35.528Z,24.00
2023-05-10T05:37:04.980Z,25.13
2023-05-10T05:39:34.541Z,23.37
2023-05-10T05:42:02.323Z,24.83
2023-05-10T05:44:32.698Z,27.00
2023-05-10T05:47:00.530Z,27.60
2023-05-10T05:49:28.413Z,26.13
2023-05-10T05:52:04.137Z,27.50
2023-05-10T05:54:36.775Z,25.48
2023-05-10T05:57:06.595Z,26.95
2023-05-10T05:59:34.652Z,26.50
2023-05-10T06:02:02.630Z,27.93
2023-05-10T06:04:30.734Z,29.92
2023-05-10T06:06:58.823Z,28.07
2023-05-10T06:09:27.326Z,32.15
2023-05-10T06:11:58.443Z,29.77
2023-05-10T06:14:26.512Z,29.80
2023-05-10T06:16:54.570Z,31.17
2023-05-10T06:19:24.077Z,30.48
2023-05-10T06:21:53.822Z,30.92
2023-05-10T06:24:22.878Z,31.87
2023-05-10T06:26:51.676Z,30.20
2023-05-10T06:29:21.171Z,29.85
2023-05-10T06:31:49.341Z,33.38
2023-05-10T06:34:17.373Z,27.85
2023-05-10T06:36:46.249Z,32.25
2023-05-10T06:39:14.224Z,29.40
2023-05-10T06:41:43.772Z,27.63
2023-05-10T06:44:11.742Z,26.70
2023-05-10T06:49:10.946Z,29.55
2023-05-10T06:51:38.743Z,30.23
2023-05-10T06:54:06.911Z,30.52
2023-05-10T06:56:35.647Z,30.45
2023-05-10T06:59:03.928Z,30.88
2023-05-10T07:01:33.288Z,33.65
2023-05-10T07:04:02.547Z,32.28
2023-05-10T07:06:33.948Z,34.72
2023-05-10T07:09:02.243Z,32.83
2023-05-10T07:11:30.026Z,34.22
2023-05-10T07:13:57.992Z,32.80
2023-05-10T07:16:25.954Z,31.67
2023-05-10T07:18:54.475Z,32.58
2023-05-10T07:21:29.613Z,30.58
2023-05-10T07:26:33.157Z,29.25
2023-05-10T07:29:11.243Z,31.67
2023-05-10T07:31:39.814Z,30.95
2023-05-10T07:34:08.184Z,29.38
2023-05-10T07:36:39.829Z,28.15
2023-05-10T07:39:08.618Z,27.73
2023-05-10T07:41:38.645Z,27.08
2023-05-10T07:44:07.265Z,29.25
2023-05-10T07:46:35.146Z,28.65
2023-05-10T07:49:03.135Z,28.17
2023-05-10T07:51:30.968Z,28.40
2023-05-10T07:54:00.302Z,26.90
2023-05-10T07:56:30.613Z,27.27
2023-05-10T07:58:59.233Z,26.92
2023-05-10T08:01:30.827Z,27.73
2023-05-10T08:03:58.876Z,27.13
2023-05-10T08:06:31.122Z,28.23
2023-05-10T08:09:00.913Z,25.80
2023-05-10T08:11:28.839Z,26.23
2023-05-10T08:13:56.863Z,26.95
2023-05-10T08:16:25.559Z,27.50
2023-05-10T08:18:56.252Z,24.85
2023-05-10T08:21:24.649Z,24.90
2023-05-10T08:23:52.732Z,23.52
2023-05-10T08:26:22.684Z,24.00
2023-05-10T08:28:50.887Z,23.98
2023-05-10T08:31:19.273Z,23.35
2023-05-10T08:33:47.386Z,24.63
2023-05-10T08:36:20.674Z,24.95
2023-05-10T08:38:52.092Z,21.75
2023-05-10T08:41:24.964Z,22.90
2023-05-10T08:43:54.586Z,22.88
2023-05-10T08:46:23.889Z,22.40
2023-05-10T08:48:53.258Z,22.65
2023-05-10T08:51:28.804Z,22.55
2023-05-10T08:53:57.294Z,21.33
2023-05-10T08:56:27.170Z,19.55
2023-05-10T08:58:55.994Z,20.65
2023-05-10T09:01:26.426Z,21.10
2023-05-10T09:03:54.804Z,21.10
2023-05-10T09:06:23.432Z,20.77
2023-05-10T09:08:51.822Z,19.27
2023-05-10T09:11:21.986Z,20.08
2023-05-10T09:13:53.465Z,20.38
2023-05-10T09:16:22.547Z,19.45
2023-05-10T09:18:51.144Z,19.40
2023-05-10T09:21:21.707Z,20.42
2023-05-10T09:23:51.146Z,19.13
2023-05-10T09:26:24.015Z,17.45
2023-05-10T09:28:58.187Z,18.90
2023-05-10T09:31:46.180Z,19.00
2023-05-10T09:34:18.905Z,19.30
2023-05-10T09:36:55.857Z,19.45
2023-05-10T09:39:33.012Z,19.65
2023-05-10T09:42:04.898Z,18.98
2023-05-10T09:44:35.970Z,18.77
2023-05-10T09:47:04.805Z,18.63
2023-05-10T09:49:34.279Z,18.85
2023-05-10T09:52:04.189Z,19.75
2023-05-10T09:54:33.030Z,17.88
2023-05-10T09:57:01.935Z,18.15
2023-05-10T09:59:31.154Z,17.30
2023-05-10T10:02:01.575Z,17.65
2023-05-10T10:04:31.307Z,19.17
2023-05-10T10:07:01.664Z,18.10
2023-05-10T10:09:29.789Z,16.58
2023-05-10T10:11:58.606Z,18.25
2023-05-10T10:14:27.041Z,17.42
2023-05-10T10:17:07.397Z,16.70
2023-05-10T10:19:38.305Z,15.77
2023-05-10T10:22:09.291Z,16.80
2023-05-10T10:24:37.646Z,16.65
2023-05-10T10:27:24.575Z,17.15
2023-05-10T10:30:10.398Z,16.83
2023-05-10T10:33:16.533Z,17.73
2023-05-10T10:36:00.213Z,17.15
2023-05-10T10:38:40.208Z,18.15
2023-05-10T10:41:28.761Z,16.90
2023-05-10T10:44:39.229Z,17.23
2023-05-10T10:47:25.406Z,16.40
2023-05-10T10:50:05.724Z,16.30
2023-05-10T10:52:37.975Z,16.15
2023-05-10T10:55:11.660Z,15.65
2023-05-10T10:57:49.631Z,15.27
2023-05-10T11:00:27.705Z,15.30
2023-05-10T11:03:00.454Z,15.32
2023-05-10T11:05:42.697Z,15.63
2023-05-10T11:08:17.432Z,15.85
2023-05-10T11:11:08.232Z,15.77
2023-05-10T11:13:41.543Z,15.27
2023-05-10T11:16:17.712Z,15.00
2023-05-10T11:19:03.094Z,14.40
2023-05-10T11:21:32.530Z,15.73
2023-05-10T11:24:16.878Z,15.18
2023-05-10T11:26:45.711Z,15.85
2023-05-10T11:29:22.244Z,15.07
2023-05-10T11:31:52.787Z,16.17
2023-05-10T11:34:27.757Z,16.45
2023-05-10T11:36:57.419Z,16.52
2023-05-10T11:39:31.356Z,15.82
2023-05-10T11:42:01.564Z,15.45
2023-05-10T11:44:31.512Z,15.85
2023-05-10T11:47:00.697Z,16.02
2023-05-10T11:49:29.368Z,15.55
2023-05-10T11:52:06.445Z,14.52
2023-05-10T11:54:36.335Z,14.63
2023-05-10T11:57:07.298Z,13.73
2023-05-10T11:59:37.531Z,13.82
2023-05-10T12:02:06.025Z,15.20
2023-05-10T12:04:34.553Z,13.68
2023-05-10T12:07:03.227Z,14.15
2023-05-10T12:09:42.767Z,13.57
2023-05-10T12:12:17.894Z,12.27
2023-05-10T12:14:51.300Z,12.40
2023-05-10T12:17:19.131Z,11.70
2023-05-10T12:19:49.177Z,11.60
2023-05-10T12:22:22.250Z,11.13
2023-05-10T12:24:51.783Z,11.68
2023-05-10T12:27:21.645Z,11.57
2023-05-10T12:29:51.602Z,11.05
2023-05-10T12:32:19.556Z,10.38
2023-05-10T12:34:48.531Z,9.85
2023-05-10T12:37:16.460Z,10.68
2023-05-10T12:39:46.942Z,11.50
2023-05-10T12:42:15.394Z,13.00
2023-05-10T12:44:46.178Z,12.45
2023-05-10T12:47:14.506Z,13.48
2023-05-10T12:49:42.394Z,13.95
2023-05-10T12:52:10.850Z,13.27
2023-05-10T12:54:39.892Z,14.80
2023-05-10T12:57:07.765Z,14.57
2023-05-10T12:59:37.442Z,13.80
2023-05-10T13:02:08.513Z,12.43
2023-05-10T13:04:40.349Z,10.90
2023-05-10T13:07:08.541Z,12.60
2023-05-10T13:09:36.691Z,14.13
2023-05-10T13:12:05.888Z,13.00
2023-05-10T13:14:34.202Z,13.30
2023-05-10T13:17:02.315Z,14.52
2023-05-10T13:19:31.493Z,14.52
2023-05-10T13:21:59.779Z,12.05
2023-05-10T13:24:28.078Z,11.68
2023-05-10T13:26:57.145Z,10.10
2023-05-10T13:29:25.300Z,10.20
2023-05-10T13:31:53.340Z,11.32
2023-05-10T13:34:21.487Z,10.85
2023-05-10T13:36:51.649Z,9.63
2023-05-10T13:39:19.560Z,9.43
2023-05-10T13:41:48.393Z,9.40
2023-05-10T13:44:16.725Z,9.23
2023-05-10T13:46:44.730Z,11.13
2023-05-10T13:49:13.155Z,11.25
2023-05-10T13:51:40.981Z,11.43
2023-05-10T13:54:12.047Z,11.77
2023-05-10T13:56:43.469Z,12.15
2023-05-10T13:59:11.701Z,13.63
2023-05-10T14:01:39.705Z,13.35
2023-05-10T14:04:12.017Z,12.73
2023-05-10T14:06:42.174Z,12.88
2023-05-10T14:09:12.397Z,12.80
2023-05-10T14:11:44.103Z,12.63
2023-05-10T14:14:12.439Z,14.48
2023-05-10T14:16:45.026Z,13.48
2023-05-10T14:19:13.302Z,13.35
2023-05-10T14:21:41.210Z,14.43
2023-05-10T14:24:09.090Z,13.77
2023-05-10T14:26:39.248Z,12.35
2023-05-10T14:29:09.327Z,14.00
2023-05-10T14:31:38.774Z,12.85
2023-05-10T14:34:07.015Z,12.93
2023-05-10T14:36:34.920Z,12.93
2023-05-10T14:39:03.802Z,13.02
2023-05-10T14:41:32.167Z,12.90
2023-05-10T14:44:01.520Z,13.40
2023-05-10T14:46:31.050Z,13.75
2023-05-10T14:48:59.109Z,13.40
2023-05-10T14:51:28.426Z,12.68
2023-05-10T14:53:57.416Z,13.32
2023-05-10T14:56:26.652Z,13.75
2023-05-10T14:58:54.710Z,12.77
2023-05-10T15:01:24.933Z,10.70
2023-05-10T15:03:53.236Z,9.73
2023-05-10T15:06:26.244Z,7.40
2023-05-10T15:08:54.155Z,8.50
2023-05-10T15:11:22.801Z,8.45
2023-05-10T15:13:51.126Z,8.70
2023-05-10T15:16:18.968Z,8.80
2023-05-10T15:18:49.342Z,10.00
2023-05-10T15:21:18.409Z,10.35
2023-05-10T15:23:47.713Z,9.88
2023-05-10T15:26:19.275Z,10.95
2023-05-10T15:28:49.730Z,10.60
2023-05-10T15:31:17.612Z,11.02
2023-05-10T15:33:45.478Z,11.30
2023-05-10T15:36:14.657Z,11.25
2023-05-10T15:38:42.607Z,10.23
2023-05-10T15:41:10.806Z,10.85
2023-05-10T15:43:38.672Z,10.13
2023-05-10T15:46:07.262Z,10.25
2023-05-10T15:48:35.245Z,10.82
2023-05-10T15:51:03.571Z,10.10
2023-05-10T15:53:34.473Z,10.43
2023-05-10T15:56:02.388Z,10.52
2023-05-10T15:58:31.546Z,10.38
2023-05-10T16:00:59.480Z,10.75
2023-05-10T16:03:27.519Z,10.07
2023-05-10T16:05:55.384Z,10.63
2023-05-10T16:08:23.483Z,9.85
2023-05-10T16:10:53.386Z,10.63
2023-05-10T16:13:21.569Z,10.55
2023-05-10T16:15:49.729Z,11.30
2023-05-10T16:18:18.184Z,10.40
2023-05-10T16:20:46.822Z,10.80
2023-05-10T16:23:15.251Z,10.30
2023-05-10T16:25:43.326Z,9.98
2023-05-10T16:28:12.494Z,9.98
2023-05-10T16:30:44.944Z,11.35
2023-05-10T16:33:14.502Z,11.15
2023-05-10T16:35:42.387Z,11.05
2023-05-10T16:38:10.183Z,10.88
2023-05-10T16:40:40.120Z,11.18
2023-05-10T16:43:09.351Z,11.15
2023-05-10T16:45:40.997Z,10.80
2023-05-10T16:48:10.256Z,11.02
2023-05-10T16:50:38.593Z,10.85
2023-05-10T16:53:06.778Z,11.35
2023-05-10T16:55:38.508Z,10.93
2023-05-10T16:58:06.874Z,9.90
2023-05-10T17:00:35.254Z,10.07
2023-05-10T17:03:05.019Z,9.88
2023-05-10T17:05:32.869Z,9.55
2023-05-10T17:08:00.915Z,10.60
2023-05-10T17:10:29.175Z,9.73
2023-05-10T17:12:57.186Z,10.85
2023-05-10T17:15:25.335Z,10.38
2023-05-10T17:17:55.206Z,10.35
2023-05-10T17:20:24.509Z,10.35
2023-05-10T17:22:52.640Z,9.93
2023-05-10T17:25:20.615Z,10.60
2023-05-10T17:27:48.581Z,10.45
2023-05-10T17:30:17.288Z,10.48
2023-05-10T17:32:48.762Z,10.35
2023-05-10T17:35:17.071Z,10.32
2023-05-10T17:37:46.730Z,9.20
2023-05-10T17:40:15.003Z,10.07
2023-05-10T17:42:42.988Z,10.07
2023-05-10T17:45:11.961Z,9.73
2023-05-10T17:47:43.418Z,9.23
2023-05-10T17:50:11.476Z,9.63
2023-05-10T17:52:39.541Z,8.50
2023-05-10T17:55:11.900Z,8.80
2023-05-10T17:57:40.609Z,8.90
2023-05-10T18:00:10.118Z,8.60
2023-05-10T18:02:38.789Z,8.50
2023-05-10T18:05:07.917Z,7.60
2023-05-10T18:07:36.178Z,8.15
2023-05-10T18:10:04.835Z,8.32
2023-05-10T18:12:35.196Z,7.18
2023-05-10T18:15:03.338Z,6.43
2023-05-10T18:17:31.172Z,7.28
2023-05-10T18:19:59.171Z,7.35
2023-05-10T18:22:27.259Z,7.20
2023-05-10T18:24:55.642Z,7.22
2023-05-10T18:27:23.569Z,7.28
2023-05-10T18:29:53.164Z,7.10
2023-05-10T18:32:32.514Z,7.05
2023-05-10T18:35:00.600Z,6.45
2023-05-10T18:37:28.421Z,6.30
2023-05-10T18:39:57.679Z,6.80
2023-05-10T18:42:26.901Z,6.70
2023-05-10T18:44:57.536Z,6.80
2023-05-10T18:47:26.785Z,6.38
2023-05-10T18:49:55.371Z,6.63
2023-05-10T18:52:23.293Z,7.05
2023-05-10T18:54:51.936Z,6.82
2023-05-10T18:57:21.173Z,6.72
2023-05-10T18:59:49.435Z,6.97
2023-05-10T19:02:18.863Z,6.25
2023-05-10T19:04:48.570Z,6.18
2023-05-10T19:07:16.575Z,6.10
2023-05-10T19:09:44.455Z,6.57
2023-05-10T19:12:12.211Z,6.25
2023-05-10T19:14:40.592Z,6.57
2023-05-10T19:19:57.663Z,6.10
2023-05-10T19:22:43.561Z,5.97
2023-05-10T19:25:19.654Z,5.78
2023-05-10T19:27:52.667Z,6.00
2023-05-10T19:30:21.182Z,6.68
2023-05-10T19:32:49.286Z,7.00
2023-05-10T19:35:20.175Z,6.57
2023-05-10T19:37:49.318Z,6.20
2023-05-10T19:40:18.493Z,7.15
2023-05-10T19:42:46.645Z,7.40
2023-05-10T19:45:15.954Z,7.20
2023-05-10T19:47:44.219Z,7.28
2023-05-10T19:50:14.000Z,7.05
2023-05-10T19:52:43.906Z,6.93
2023-05-10T19:55:25.291Z,7.15
2023-05-10T19:57:53.506Z,7.45
2023-05-10T20:00:21.721Z,6.75
2023-05-10T20:02:50.271Z,7.45
2023-05-10T20:05:18.406Z,7.65
2023-05-10T20:07:47.892Z,6.75
2023-05-10T20:10:16.668Z,6.05
2023-05-10T20:12:52.459Z,6.85
2023-05-10T20:15:23.129Z,7.00
2023-05-10T20:17:52.905Z,7.18
2023-05-10T20:20:21.837Z,7.53
2023-05-10T20:22:51.837Z,7.47
2023-05-10T20:25:19.828Z,7.40
2023-05-10T20:27:47.693Z,8.02
2023-05-10T20:30:16.218Z,8.23
2023-05-10T20:32:48.119Z,8.13
2023-05-10T20:35:16.147Z,7.70
2023-05-10T20:37:44.041Z,8.18
2023-05-10T20:40:13.860Z,7.53
2023-05-10T20:42:41.978Z,7.90
2023-05-10T20:45:12.016Z,8.27
2023-05-10T20:47:39.930Z,8.32
2023-05-10T20:50:08.798Z,8.65
2023-05-10T20:52:36.703Z,10.88
2023-05-10T20:55:06.161Z,13.25
2023-05-10T20:57:36.432Z,13.20
2023-05-10T21:00:05.611Z,16.13
2023-05-10T21:02:33.615Z,17.70
2023-05-10T21:05:01.963Z,18.92
2023-05-10T21:07:32.376Z,19.60
2023-05-10T21:10:00.291Z,19.37
2023-05-10T21:12:31.959Z,19.80
2023-05-10T21:15:01.540Z,19.27
2023-05-10T21:17:29.392Z,20.17
2023-05-10T21:19:57.212Z,21.27
2023-05-10T21:22:25.398Z,23.43
2023-05-10T21:24:53.706Z,22.70
2023-05-10T21:27:21.954Z,22.00
2023-05-10T21:29:50.015Z,21.60
2023-05-10T21:32:20.243Z,23.17
2023-05-10T21:34:48.072Z,21.20
2023-05-10T21:37:17.437Z,22.67
2023-05-10T21:39:46.616Z,21.97
2023-05-10T21:42:14.532Z,21.58
2023-05-10T21:44:43.228Z,20.67
2023-05-10T21:47:11.132Z,22.63
2023-05-10T21:49:40.445Z,21.20
2023-05-10T21:52:08.661Z,20.55
2023-05-10T21:54:40.787Z,21.40
2023-05-10T21:57:08.657Z,22.13
2023-05-10T21:59:36.769Z,21.13
2023-05-10T22:02:04.803Z,22.37
2023-05-10T22:04:32.726Z,22.73
2023-05-10T22:07:02.366Z,22.17
2023-05-10T22:09:30.386Z,23.40
2023-05-10T22:11:58.324Z,23.25
2023-05-10T22:14:26.174Z,23.57
2023-05-10T22:16:54.017Z,22.40
2023-05-10T22:19:24.538Z,24.17
2023-05-10T22:21:53.192Z,24.10
2023-05-10T22:24:24.632Z,23.13
2023-05-10T22:26:54.142Z,24.73
2023-05-10T22:29:23.822Z,25.93
2023-05-10T22:31:51.683Z,24.77
2023-05-10T22:34:20.015Z,25.47
2023-05-10T22:36:50.723Z,25.57
2023-05-10T22:39:18.533Z,25.60
2023-05-10T22:41:47.867Z,27.10
2023-05-10T22:44:16.137Z,24.03
2023-05-10T22:46:44.000Z,25.30
2023-05-10T22:49:13.244Z,25.03
2023-05-10T22:51:41.108Z,27.60
2023-05-10T22:54:08.866Z,32.90
2023-05-10T22:56:36.775Z,33.55
2023-05-10T22:59:06.045Z,29.88
2023-05-10T23:01:34.117Z,35.50
2023-05-10T23:04:01.932Z,32.90
2023-05-10T23:06:29.812Z,34.00
2023-05-10T23:08:57.609Z,29.10
2023-05-10T23:11:25.527Z,29.77
2023-05-10T23:13:53.235Z,27.97
2023-05-10T23:16:22.538Z,27.57
2023-05-10T23:18:50.501Z,26.27
2023-05-10T23:21:18.449Z,28.20
2023-05-10T23:23:46.290Z,29.23
2023-05-10T23:26:14.325Z,31.60
2023-05-10T23:28:42.367Z,31.00
2023-05-10T23:31:10.548Z,31.90
2023-05-10T23:33:39.930Z,50.27
2023-05-10T23:36:08.777Z,34.88
2023-05-10T23:38:38.343Z,42.03
2023-05-10T23:41:06.195Z,34.57
2023-05-10T23:43:34.030Z,29.20
2023-05-10T23:46:01.947Z,29.53
2023-05-10T23:48:29.989Z,28.27
2023-05-10T23:51:00.221Z,27.77
2023-05-10T23:53:28.434Z,28.67
2023-05-10T23:55:56.530Z,32.27
2023-05-10T23:58:24.423Z,33.70
